アムステルダム/スキポール の空港の天気 - METARとTAF

スキポール空港(アムステルダム) ( EHAM / AMS ) - オランダ アムステルダム
飛行場実況気象(Metar)
観測時間01/20 18:25 CET (01/20 17:25 UTC)
風向・風速東北東 3m/s
視程10km以上
天気現象
なし
気温0℃
湿度69%
気圧1034hPa
METAREHAM 201725Z 07005KT CAVOK 00/M05 Q1034 NOSIG
過去の天気等 Google飛行場航空写真 Wunderground天気予報

過去48時間のMETAR

飛行場予報(TAF)
発表時間: 1/20 18:00 CET (1/20 17:00 UTC)
予報対象時間: 20日19時 CET ~ 22日1時 CET
風向・風速東北東 3m/s
視程10km以上
なし
21日3時 CET から 確率 30% で
視程6,000m
21日22時 CET ~ 22日1時 CET に徐々に
風向・風速南東 2m/s
視程4,000m
天気現象もや
TAF EHAM 201700Z 2018/2124 07006KT CAVOK
PROB30 2102/2109 6000
BECMG 2121/2124 14003KT 4000 BR